createdAt,value
2018-07-01T07:16:49.816Z,42.38
2018-07-01T07:17:49.444Z,46.49
2018-07-01T07:18:49.672Z,41.27
2018-07-01T07:19:49.597Z,43.16
2018-07-01T07:20:49.630Z,40.77
2018-07-01T07:23:05.760Z,40.59
2018-07-01T07:24:04.489Z,45.13
2018-07-01T07:25:03.563Z,40.41
2018-07-01T07:26:03.600Z,40.84
2018-07-01T07:27:03.615Z,43.20
2018-07-01T07:28:06.342Z,46.34
2018-07-01T07:29:03.793Z,44.85
2018-07-01T07:30:05.465Z,44.05
2018-07-01T07:31:03.954Z,44.67
2018-07-01T07:32:03.816Z,45.48
2018-07-01T07:33:03.785Z,43.87
2018-07-01T07:34:03.355Z,42.66
2018-07-01T07:36:35.017Z,47.40
2018-07-01T07:37:35.116Z,45.76
2018-07-01T07:38:34.829Z,43.93
2018-07-01T07:39:34.643Z,43.74
2018-07-01T07:40:34.558Z,41.61
2018-07-01T07:41:34.669Z,43.62
2018-07-01T07:42:34.628Z,41.59
2018-07-01T07:43:34.527Z,43.59
2018-07-01T07:44:34.537Z,45.90
2018-07-01T07:45:34.544Z,44.47
2018-07-01T07:46:34.521Z,41.53
2018-07-01T07:47:34.661Z,38.51
2018-07-01T07:48:34.570Z,40.46
2018-07-01T07:49:34.645Z,44.29
2018-07-01T07:50:34.420Z,40.36
2018-07-01T07:53:15.613Z,43.36
2018-07-01T07:53:54.888Z,40.04
2018-07-01T07:56:26.465Z,41.06
2018-07-01T07:57:26.191Z,38.55
2018-07-01T07:58:26.218Z,41.75
2018-07-01T07:59:26.098Z,37.23
2018-07-01T08:00:26.025Z,38.97
2018-07-01T08:01:26.031Z,39.01
2018-07-01T08:02:26.047Z,39.94
2018-07-01T08:03:25.976Z,42.98
2018-07-01T08:04:25.909Z,44.87
2018-07-01T08:05:25.985Z,44.65
2018-07-01T08:07:45.348Z,43.59
2018-07-01T08:08:52.917Z,43.36
2018-07-01T08:09:44.980Z,40.92
2018-07-01T08:10:45.151Z,41.11
2018-07-01T08:11:44.901Z,39.90
2018-07-01T08:12:45.071Z,38.88
2018-07-01T08:13:44.983Z,40.69
2018-07-01T08:14:45.254Z,37.57
2018-07-01T08:15:44.649Z,39.28
2018-07-01T08:16:44.601Z,35.66
2018-07-01T08:17:44.580Z,39.08
2018-07-01T08:18:44.615Z,38.18
2018-07-01T08:19:44.666Z,37.17
2018-07-01T08:20:44.529Z,39.30
2018-07-01T08:23:05.677Z,37.16
2018-07-01T08:24:05.816Z,36.47
2018-07-01T08:25:05.636Z,38.89
2018-07-01T08:26:05.692Z,36.49
2018-07-01T08:27:05.450Z,38.81
2018-07-01T08:28:05.743Z,38.10
2018-07-01T08:29:05.447Z,39.92
2018-07-01T08:30:05.494Z,36.20
2018-07-01T08:31:05.328Z,37.11
2018-07-01T08:32:05.459Z,40.23
2018-07-01T08:33:05.401Z,35.08
2018-07-01T08:36:15.245Z,36.47
2018-07-01T08:38:47.570Z,37.36
2018-07-01T08:39:47.612Z,37.78
2018-07-01T08:40:47.661Z,36.67
2018-07-01T08:41:47.758Z,36.79
2018-07-01T08:42:47.333Z,36.40
2018-07-01T08:43:47.398Z,37.41
2018-07-01T08:44:47.400Z,40.82
2018-07-01T08:45:47.547Z,37.19
2018-07-01T08:48:00.307Z,36.91
2018-07-01T08:50:57.817Z,39.03
2018-07-01T08:53:37.307Z,38.12
2018-07-01T08:54:36.844Z,37.31
2018-07-01T08:55:36.727Z,39.43
2018-07-01T08:56:36.657Z,40.42
2018-07-01T08:57:36.808Z,40.40
2018-07-01T08:58:36.511Z,40.48
2018-07-01T08:59:36.579Z,38.65
2018-07-01T09:00:36.527Z,37.34
2018-07-01T09:01:36.692Z,37.65
2018-07-01T09:02:36.558Z,33.31
2018-07-01T09:03:36.517Z,35.95
2018-07-01T09:05:51.341Z,37.58
2018-07-01T09:08:07.270Z,35.97
2018-07-01T09:10:00.916Z,39.29
2018-07-01T09:11:00.720Z,38.48
2018-07-01T09:12:00.549Z,40.52
2018-07-01T09:13:00.542Z,38.50
2018-07-01T09:14:00.377Z,40.12
2018-07-01T09:15:00.355Z,37.49
2018-07-01T09:16:00.502Z,36.61
2018-07-01T09:17:00.396Z,36.62
2018-07-01T09:18:01.251Z,38.66
2018-07-01T09:19:00.450Z,38.35
2018-07-01T09:20:00.370Z,37.15
2018-07-01T09:21:00.380Z,37.26
2018-07-01T09:23:57.645Z,38.98
2018-07-01T09:24:57.266Z,41.10
2018-07-01T09:25:57.448Z,38.68
2018-07-01T09:30:06.083Z,42.49
2018-07-01T09:31:06.215Z,44.29
2018-07-01T09:32:05.891Z,43.66
2018-07-01T09:33:05.697Z,43.85
2018-07-01T09:34:05.877Z,42.90
2018-07-01T09:35:05.722Z,42.38
2018-07-01T09:38:10.222Z,36.69
2018-07-01T09:39:09.817Z,40.11
2018-07-01T09:40:10.646Z,38.38
2018-07-01T09:41:10.556Z,38.88
2018-07-01T09:42:10.034Z,38.66
2018-07-01T09:43:09.895Z,38.46
2018-07-01T09:44:09.721Z,36.03
2018-07-01T09:45:10.716Z,34.94
2018-07-01T09:46:10.657Z,37.35
2018-07-01T09:48:51.018Z,38.56
2018-07-01T09:55:30.418Z,35.03
2018-07-01T09:56:30.096Z,36.16
2018-07-01T09:57:29.929Z,36.97
2018-07-01T09:58:29.998Z,38.49
2018-07-01T09:59:29.943Z,39.30
2018-07-01T10:00:29.890Z,37.19
2018-07-01T10:01:29.986Z,36.79
2018-07-01T10:02:29.945Z,34.29
2018-07-01T10:03:30.000Z,36.10
2018-07-01T10:04:30.439Z,37.23
2018-07-01T10:05:30.017Z,37.30
2018-07-01T10:06:30.029Z,34.89
2018-07-01T10:09:53.498Z,36.90
2018-07-01T10:10:53.175Z,36.42
2018-07-01T10:16:53.119Z,42.35
2018-07-01T10:17:53.046Z,40.53
2018-07-01T10:18:53.754Z,39.00
2018-07-01T10:19:53.100Z,38.60
2018-07-01T10:20:52.821Z,38.38
2018-07-01T10:23:18.203Z,40.81
2018-07-01T10:24:17.771Z,37.57
2018-07-01T10:25:17.724Z,40.26
2018-07-01T10:26:17.775Z,39.14
2018-07-01T10:29:19.894Z,37.20
2018-07-01T10:32:33.350Z,41.17
2018-07-01T10:33:32.856Z,35.75
2018-07-01T10:34:33.033Z,38.95
2018-07-01T10:36:07.712Z,36.96
2018-07-01T10:40:42.147Z,35.14
2018-07-01T10:41:28.462Z,35.06
2018-07-01T10:46:25.091Z,37.43
2018-07-01T10:47:29.361Z,40.64
2018-07-01T10:48:25.972Z,40.66
2018-07-01T10:49:27.499Z,36.74
2018-07-01T10:50:25.924Z,41.06
2018-07-01T10:51:24.835Z,41.95
2018-07-01T10:55:43.358Z,38.55
2018-07-01T10:56:42.997Z,38.25
2018-07-01T10:57:44.309Z,38.87
2018-07-01T10:58:43.131Z,39.90
2018-07-01T10:59:43.886Z,39.41
2018-07-01T11:06:13.311Z,41.13
2018-07-01T11:08:27.718Z,43.62
2018-07-01T11:09:27.209Z,43.68
2018-07-01T11:10:26.878Z,42.55
2018-07-01T11:11:26.819Z,41.03
2018-07-01T11:12:26.809Z,40.61
2018-07-01T11:13:26.785Z,41.07
2018-07-01T11:14:26.648Z,38.16
2018-07-01T11:15:26.713Z,38.20
2018-07-01T11:16:26.652Z,37.91
2018-07-01T11:17:26.613Z,39.36
2018-07-01T11:18:26.617Z,38.39
2018-07-01T11:19:26.670Z,40.34
2018-07-01T11:20:26.702Z,42.98
2018-07-01T11:21:26.595Z,41.36
2018-07-01T11:27:52.654Z,47.34
2018-07-01T11:30:08.945Z,43.34
2018-07-01T11:31:08.701Z,41.83
2018-07-01T11:32:08.780Z,41.00
2018-07-01T11:33:08.688Z,40.69
2018-07-01T11:34:08.546Z,42.47
2018-07-01T11:35:08.634Z,44.07
2018-07-01T11:36:08.909Z,41.93
2018-07-01T11:39:15.161Z,40.11
2018-07-01T11:40:10.979Z,41.19
2018-07-01T11:41:11.671Z,40.69
2018-07-01T11:42:10.935Z,38.54
2018-07-01T11:43:11.391Z,39.53
2018-07-01T11:44:11.630Z,43.32
2018-07-01T11:45:17.849Z,35.01
2018-07-01T11:46:11.168Z,36.93
2018-07-01T11:47:26.275Z,35.14
2018-07-01T11:48:10.707Z,36.18
2018-07-01T11:49:10.740Z,38.90
2018-07-01T11:50:10.619Z,41.61
2018-07-01T11:51:10.513Z,40.81
2018-07-01T11:53:26.231Z,41.85
2018-07-01T11:54:26.280Z,38.90
2018-07-01T11:55:26.078Z,35.88
2018-07-01T11:56:26.028Z,37.00
2018-07-01T11:57:25.897Z,37.90
2018-07-01T11:58:25.875Z,38.49
2018-07-01T11:59:25.905Z,37.37
2018-07-01T12:00:25.950Z,40.35
2018-07-01T12:01:25.789Z,39.01
2018-07-01T12:02:25.841Z,36.10
2018-07-01T12:03:25.846Z,33.21
2018-07-01T12:04:25.939Z,35.03
2018-07-01T12:05:25.864Z,33.94
2018-07-01T12:06:25.752Z,37.42
2018-07-01T12:08:36.979Z,39.92
2018-07-01T12:09:36.903Z,39.82
2018-07-01T12:10:36.810Z,39.80
2018-07-01T12:11:36.906Z,39.22
2018-07-01T12:12:36.764Z,39.43
2018-07-01T12:13:36.682Z,38.64
2018-07-01T12:14:36.724Z,39.05
2018-07-01T12:15:36.689Z,39.56
2018-07-01T12:16:36.719Z,40.26
2018-07-01T12:17:36.707Z,42.35
2018-07-01T12:18:36.726Z,41.21
2018-07-01T12:19:36.727Z,40.00
2018-07-01T12:20:36.677Z,39.40
2018-07-01T12:21:36.678Z,39.98
2018-07-01T12:24:52.993Z,38.09
2018-07-01T12:25:52.975Z,35.98
2018-07-01T12:26:53.255Z,36.92
2018-07-01T12:27:52.878Z,39.06
2018-07-01T12:28:52.860Z,37.47
2018-07-01T12:29:52.785Z,39.30
2018-07-01T12:30:52.800Z,40.70
2018-07-01T12:31:52.705Z,40.11
2018-07-01T12:32:52.703Z,40.08
2018-07-01T12:33:52.686Z,42.38
2018-07-01T12:34:52.772Z,36.97
2018-07-01T12:35:52.641Z,39.08
2018-07-01T12:36:52.671Z,40.06
2018-07-01T12:39:08.697Z,39.42
2018-07-01T12:40:08.670Z,40.01
2018-07-01T12:41:08.651Z,36.88
2018-07-01T12:42:08.666Z,39.79
2018-07-01T12:43:08.512Z,42.40
2018-07-01T12:44:08.489Z,36.08
2018-07-01T12:45:08.424Z,38.59
2018-07-01T12:46:08.470Z,40.49
2018-07-01T12:47:08.404Z,40.17
2018-07-01T12:48:08.361Z,40.83
2018-07-01T12:49:08.401Z,40.31
2018-07-01T12:50:08.354Z,40.47
2018-07-01T12:51:08.428Z,34.36
2018-07-01T12:52:08.620Z,36.98
2018-07-01T12:54:26.575Z,36.98
2018-07-01T12:55:26.501Z,37.38
2018-07-01T12:56:26.503Z,35.10
2018-07-01T12:57:26.529Z,35.03
2018-07-01T12:58:26.338Z,37.15
2018-07-01T12:59:26.308Z,37.57
2018-07-01T13:00:26.209Z,37.28
2018-07-01T13:01:26.204Z,38.32
2018-07-01T13:02:26.284Z,41.45
2018-07-01T13:03:26.232Z,41.96
2018-07-01T13:04:26.277Z,41.55
2018-07-01T13:05:40.810Z,37.44
2018-07-01T13:06:26.366Z,39.83
2018-07-01T13:11:43.893Z,41.33
2018-07-01T13:12:43.827Z,39.72
2018-07-01T13:13:43.933Z,40.53
2018-07-01T13:14:44.175Z,38.92
2018-07-01T13:15:43.658Z,38.64
2018-07-01T13:16:43.607Z,38.73
2018-07-01T13:17:43.557Z,39.45
2018-07-01T13:18:43.635Z,39.56
2018-07-01T13:19:43.661Z,41.25
2018-07-01T13:20:43.598Z,38.93
2018-07-01T13:21:43.624Z,41.23
2018-07-01T13:25:16.774Z,40.59
2018-07-01T13:26:16.385Z,40.17
2018-07-01T13:27:16.466Z,37.96
2018-07-01T13:28:16.315Z,37.05
2018-07-01T13:29:16.320Z,40.06
2018-07-01T13:30:16.323Z,39.25
2018-07-01T13:31:16.260Z,36.03
2018-07-01T13:32:16.246Z,36.93
2018-07-01T13:33:16.261Z,38.14
2018-07-01T13:34:16.237Z,40.43
2018-07-01T13:35:16.345Z,40.19
2018-07-01T13:36:16.301Z,42.57
2018-07-01T13:37:16.224Z,43.43
2018-07-01T13:39:30.190Z,32.91
2018-07-01T13:40:29.567Z,36.53
2018-07-01T13:41:29.825Z,37.16
2018-07-01T13:42:29.693Z,34.36
2018-07-01T13:43:29.477Z,35.98
2018-07-01T13:44:29.420Z,37.48
2018-07-01T13:45:29.545Z,36.58
2018-07-01T13:46:29.398Z,40.11
2018-07-01T13:47:29.461Z,41.79
2018-07-01T13:48:29.471Z,40.19
2018-07-01T13:49:29.392Z,39.39
2018-07-01T13:50:29.431Z,39.69
2018-07-01T13:51:29.431Z,39.89
2018-07-01T13:52:29.317Z,36.08
2018-07-01T13:54:51.581Z,37.40
2018-07-01T13:55:43.990Z,38.12
2018-07-01T13:56:42.650Z,40.23
2018-07-01T13:57:43.011Z,36.93
2018-07-01T13:58:43.890Z,39.25
2018-07-01T13:59:55.246Z,39.48
2018-07-01T14:00:42.252Z,39.08
2018-07-01T14:01:53.085Z,38.70
2018-07-01T14:02:42.065Z,40.30
2018-07-01T14:03:43.494Z,36.90
2018-07-01T14:04:41.952Z,39.43
2018-07-01T14:05:41.925Z,39.36
2018-07-01T14:06:42.087Z,43.59
2018-07-01T14:07:42.069Z,40.22
2018-07-01T14:10:14.079Z,40.62
2018-07-01T14:11:13.956Z,38.92
2018-07-01T14:12:14.131Z,39.43
2018-07-01T14:13:13.927Z,41.97
2018-07-01T14:14:13.962Z,40.58
2018-07-01T14:17:26.190Z,44.79
2018-07-01T14:27:17.869Z,41.29
2018-07-01T14:28:29.849Z,43.16
2018-07-01T14:29:18.986Z,44.15
2018-07-01T14:30:16.815Z,41.31
2018-07-01T14:31:18.557Z,40.59
2018-07-01T14:32:17.920Z,40.95
2018-07-01T14:33:19.065Z,37.82
2018-07-01T14:34:16.650Z,40.93
2018-07-01T14:35:17.120Z,37.10
2018-07-01T14:36:18.684Z,38.39
2018-07-01T14:37:17.486Z,40.39
2018-07-01T14:41:17.891Z,40.69
2018-07-01T14:42:15.444Z,38.87
2018-07-01T14:43:14.911Z,39.25
2018-07-01T14:44:13.887Z,34.83
2018-07-01T14:45:13.999Z,38.63
2018-07-01T14:49:05.178Z,36.85
2018-07-01T14:51:54.335Z,35.33
2018-07-01T14:57:45.731Z,41.15
2018-07-01T15:03:13.897Z,42.01
2018-07-01T15:03:57.801Z,40.50
2018-07-01T15:04:57.965Z,41.41
2018-07-01T15:06:00.249Z,41.91
2018-07-01T15:06:57.405Z,40.50
2018-07-01T15:08:29.982Z,41.61
2018-07-01T15:08:57.772Z,42.41
2018-07-01T15:09:58.053Z,42.70
2018-07-01T15:10:57.129Z,42.88
2018-07-01T15:11:57.648Z,42.03
2018-07-01T15:12:57.918Z,40.91
2018-07-01T15:14:02.997Z,42.82
2018-07-01T15:14:56.979Z,40.69
2018-07-01T15:15:58.880Z,40.97
2018-07-01T15:16:57.992Z,39.32
2018-07-01T15:17:57.861Z,40.01
2018-07-01T15:18:57.057Z,38.51
2018-07-01T15:19:57.759Z,34.88
2018-07-01T15:20:57.723Z,38.99
2018-07-01T15:21:58.048Z,36.16
2018-07-01T15:22:56.903Z,37.77
2018-07-01T15:24:19.335Z,36.26
2018-07-01T15:24:57.532Z,34.05
2018-07-01T15:25:56.946Z,35.14
2018-07-01T15:26:56.819Z,36.94
2018-07-01T15:27:57.154Z,37.03
2018-07-01T15:28:57.774Z,37.61
2018-07-01T15:29:57.759Z,38.42
2018-07-01T15:30:58.506Z,33.59
2018-07-01T15:31:56.741Z,36.21
2018-07-01T15:32:57.075Z,35.71
2018-07-01T15:33:58.170Z,36.69
2018-07-01T15:34:56.713Z,37.19
2018-07-01T15:35:56.687Z,38.59
2018-07-01T15:36:58.600Z,35.18
2018-07-01T15:37:56.619Z,34.76
2018-07-01T15:39:17.875Z,37.84
2018-07-01T15:39:56.914Z,37.04
2018-07-01T15:40:57.038Z,37.16
2018-07-01T15:41:56.858Z,33.86
2018-07-01T15:42:57.124Z,35.86
2018-07-01T15:43:57.109Z,36.66
2018-07-01T15:44:56.689Z,35.54
2018-07-01T15:45:56.548Z,37.84
2018-07-01T15:50:14.175Z,35.13
2018-07-01T15:58:00.567Z,39.06
2018-07-01T15:58:28.006Z,39.00
2018-07-01T15:59:27.807Z,39.40
2018-07-01T16:00:30.961Z,40.02
2018-07-01T16:01:28.353Z,41.23
2018-07-01T16:02:27.616Z,44.24
2018-07-01T16:03:27.865Z,44.45
2018-07-01T16:04:27.752Z,42.44
2018-07-01T16:05:27.998Z,39.12
2018-07-01T16:06:27.519Z,40.92
2018-07-01T16:07:27.625Z,42.33
2018-07-01T16:08:32.824Z,42.24
2018-07-01T16:09:27.655Z,43.42
2018-07-01T16:10:27.452Z,40.02
2018-07-01T16:11:27.658Z,39.01
2018-07-01T16:12:28.477Z,40.73
2018-07-01T16:13:27.515Z,40.11
2018-07-01T16:14:27.532Z,39.00
2018-07-01T16:15:27.410Z,40.19
2018-07-01T16:16:27.726Z,38.88
2018-07-01T16:17:27.412Z,37.57
2018-07-01T16:18:28.479Z,36.97
2018-07-01T16:19:27.351Z,40.79
2018-07-01T16:20:27.448Z,37.77
2018-07-01T16:21:27.496Z,41.27
2018-07-01T16:22:27.812Z,40.19
2018-07-01T16:26:06.359Z,39.45
2018-07-01T16:27:05.368Z,39.28
2018-07-01T16:28:05.564Z,41.20
2018-07-01T16:29:05.227Z,40.30
2018-07-01T16:30:05.199Z,42.11
2018-07-01T16:31:05.210Z,40.91
2018-07-01T16:32:05.147Z,39.29
2018-07-01T16:34:19.627Z,41.31
2018-07-01T16:35:21.384Z,38.99
2018-07-01T16:36:19.748Z,39.92
2018-07-01T16:37:19.661Z,39.23
2018-07-01T16:39:47.654Z,40.16
2018-07-01T16:40:31.115Z,41.36
2018-07-01T16:41:31.551Z,43.79
2018-07-01T16:42:31.457Z,44.19
2018-07-01T16:43:32.350Z,41.97
2018-07-01T16:44:31.198Z,42.18
2018-07-01T16:45:31.062Z,43.28
2018-07-01T16:46:30.992Z,42.07
2018-07-01T16:47:30.945Z,41.45
2018-07-01T16:48:30.927Z,45.16
2018-07-01T16:49:31.980Z,41.13
2018-07-01T16:50:31.083Z,40.72
2018-07-01T16:51:30.876Z,38.59
2018-07-01T16:52:30.987Z,37.16
2018-07-01T16:53:30.839Z,38.25
2018-07-01T16:54:30.869Z,38.95
2018-07-01T16:55:30.884Z,38.25
2018-07-01T16:56:31.819Z,38.45
2018-07-01T16:57:30.743Z,36.44
2018-07-01T16:58:30.846Z,38.65
2018-07-01T16:59:34.763Z,38.43
2018-07-01T17:00:30.793Z,40.84
2018-07-01T17:01:30.760Z,36.30
2018-07-01T17:02:30.835Z,37.21
2018-07-01T17:03:30.691Z,37.41
2018-07-01T17:04:30.708Z,37.30
2018-07-01T17:05:30.929Z,37.51
2018-07-01T17:06:30.769Z,39.10
2018-07-01T17:07:30.674Z,37.39
2018-07-01T17:09:42.773Z,39.60
2018-07-01T17:10:42.708Z,38.68
2018-07-01T17:11:42.701Z,39.30
2018-07-01T17:12:42.599Z,38.90
2018-07-01T17:13:42.449Z,36.79
2018-07-01T17:14:42.538Z,39.52
2018-07-01T17:15:42.483Z,39.54
2018-07-01T17:16:42.329Z,39.36
2018-07-01T17:17:42.367Z,39.37
2018-07-01T17:18:42.335Z,40.40
2018-07-01T17:19:42.288Z,40.42
2018-07-01T17:20:42.477Z,40.54
2018-07-01T17:21:42.471Z,41.47
2018-07-01T17:22:42.236Z,41.47
2018-07-01T17:26:09.820Z,45.32
2018-07-01T17:27:09.701Z,44.49
2018-07-01T17:28:09.777Z,44.09
2018-07-01T17:29:09.767Z,43.69
2018-07-01T17:30:09.651Z,42.58
2018-07-01T17:31:09.675Z,44.59
2018-07-01T17:32:09.576Z,45.61
2018-07-01T17:33:09.552Z,45.98
2018-07-01T17:34:09.688Z,46.99
2018-07-01T17:35:09.576Z,45.56
2018-07-01T17:36:09.558Z,44.75
2018-07-01T17:37:09.756Z,42.01
2018-07-01T17:38:09.548Z,44.73
2018-07-01T17:40:23.689Z,43.10
2018-07-01T17:41:21.967Z,42.40
2018-07-01T17:42:21.818Z,43.40
2018-07-01T17:43:22.008Z,43.91
2018-07-01T17:44:21.781Z,43.71
2018-07-01T17:45:21.848Z,44.19
2018-07-01T17:46:21.927Z,39.98
2018-07-01T17:47:21.840Z,41.09
2018-07-01T17:48:21.719Z,42.32
2018-07-01T17:49:22.008Z,40.10
2018-07-01T17:50:21.692Z,41.00
2018-07-01T17:51:21.679Z,40.91
2018-07-01T17:52:22.409Z,41.51
2018-07-01T17:53:24.610Z,41.81
2018-07-01T17:56:48.402Z,41.93
2018-07-01T17:57:48.290Z,42.24
2018-07-01T17:58:48.160Z,42.24
2018-07-01T17:59:47.972Z,42.54
2018-07-01T18:00:47.998Z,43.24
2018-07-01T18:01:50.712Z,44.35
2018-07-01T18:02:47.918Z,43.54
2018-07-01T18:03:48.906Z,41.22
2018-07-01T18:04:49.732Z,42.44
2018-07-01T18:05:47.815Z,43.54
2018-07-01T18:06:47.863Z,44.05
2018-07-01T18:07:47.847Z,46.57
2018-07-01T18:08:47.827Z,46.37
2018-07-01T18:09:50.743Z,44.65
2018-07-01T18:10:49.055Z,45.06
2018-07-01T18:11:47.814Z,46.17
2018-07-01T18:13:00.524Z,46.47
2018-07-01T18:13:48.535Z,47.38
2018-07-01T18:14:48.122Z,47.09
2018-07-01T18:15:57.677Z,46.39
2018-07-01T18:16:48.910Z,46.69
2018-07-01T18:17:47.897Z,48.61
2018-07-01T18:18:48.065Z,46.37
2018-07-01T18:19:58.599Z,45.56
2018-07-01T18:20:47.957Z,45.84
2018-07-01T18:22:04.610Z,43.73
2018-07-01T18:24:27.527Z,45.72
2018-07-01T18:25:12.904Z,45.62
2018-07-01T18:26:01.871Z,44.13
2018-07-01T18:27:01.138Z,46.55
2018-07-01T18:29:18.696Z,45.74
2018-07-01T18:30:14.606Z,45.97
2018-07-01T18:31:14.367Z,46.37
2018-07-01T18:32:14.797Z,46.67
2018-07-01T18:33:14.319Z,45.68
2018-07-01T18:34:25.244Z,46.19
2018-07-01T18:35:25.738Z,48.73
2018-07-01T18:36:14.436Z,48.85
2018-07-01T18:37:14.658Z,49.26
2018-07-01T18:38:35.334Z,50.09
2018-07-01T18:40:39.369Z,50.42
2018-07-01T18:41:39.375Z,50.84
2018-07-01T18:42:39.163Z,49.93
2018-07-01T18:43:39.732Z,49.93
2018-07-01T18:44:39.031Z,51.48
2018-07-01T18:45:39.079Z,49.45
2018-07-01T18:46:38.980Z,49.86
2018-07-01T18:47:38.978Z,49.45
2018-07-01T18:48:54.865Z,51.60
2018-07-01T18:49:39.227Z,51.73
2018-07-01T18:50:39.562Z,52.31
2018-07-01T18:51:39.067Z,53.05
2018-07-01T18:52:39.154Z,52.54
2018-07-01T18:53:39.072Z,53.96
2018-07-01T18:56:50.140Z,56.10
2018-07-01T18:57:43.963Z,55.93
2018-07-01T18:58:55.479Z,55.52
2018-07-01T18:59:44.587Z,55.93
2018-07-01T19:00:44.313Z,56.34
2018-07-01T19:01:56.075Z,56.26
2018-07-01T19:02:44.123Z,56.46
2018-07-01T19:03:43.793Z,56.05
2018-07-01T19:04:44.774Z,56.26
2018-07-01T19:06:04.780Z,55.88
2018-07-01T19:06:43.806Z,54.77
2018-07-01T19:07:44.193Z,56.99
2018-07-01T19:08:43.882Z,53.96
2018-07-01T19:09:44.646Z,56.01
2018-07-01T19:10:44.687Z,55.91
2018-07-01T19:11:45.086Z,54.90
2018-07-01T19:12:43.715Z,56.04
2018-07-01T19:13:43.702Z,54.49
2018-07-01T19:14:44.647Z,54.21
2018-07-01T19:15:44.450Z,55.83
2018-07-01T19:16:46.451Z,57.56
2018-07-01T19:17:44.723Z,56.37
2018-07-01T19:18:44.444Z,56.06
2018-07-01T19:19:43.661Z,57.08
2018-07-01T19:20:43.622Z,56.77
2018-07-01T19:21:43.654Z,57.48
2018-07-01T19:22:43.630Z,57.51
2018-07-01T19:23:44.579Z,58.83
2018-07-01T19:26:48.506Z,59.27
2018-07-01T19:27:49.034Z,57.54
2018-07-01T19:28:48.070Z,59.80
2018-07-01T19:29:47.811Z,60.61
2018-07-01T19:30:49.553Z,59.91
2018-07-01T19:31:47.832Z,59.09
2018-07-01T19:32:49.393Z,59.32
2018-07-01T19:33:48.801Z,57.69
2018-07-01T19:34:48.823Z,56.90
2018-07-01T19:35:48.583Z,59.25
2018-07-01T19:36:48.521Z,59.75
2018-07-01T19:37:48.784Z,60.19
2018-07-01T19:38:48.790Z,61.72
2018-07-01T19:41:02.171Z,58.97
2018-07-01T19:42:02.104Z,61.75
2018-07-01T19:43:02.103Z,61.95
2018-07-01T19:44:01.916Z,60.02
2018-07-01T19:45:01.886Z,60.12
2018-07-01T19:46:01.818Z,60.83
2018-07-01T19:47:01.934Z,60.86
2018-07-01T19:48:01.845Z,61.07
2018-07-01T19:49:01.900Z,61.16
2018-07-01T19:50:01.773Z,62.32
2018-07-01T19:51:01.770Z,63.54
2018-07-01T19:52:01.734Z,64.76
2018-07-01T19:53:02.270Z,64.97
2018-07-01T19:54:01.832Z,65.37
2018-07-01T19:56:16.598Z,67.32
2018-07-01T19:57:17.649Z,64.66
2018-07-01T19:58:21.255Z,62.82
2018-07-01T19:59:20.132Z,61.73
2018-07-01T20:00:16.636Z,61.94
2018-07-01T20:01:17.552Z,64.39
2018-07-01T20:02:16.405Z,64.49
2018-07-01T20:03:16.461Z,63.81
2018-07-01T20:04:16.477Z,62.68
2018-07-01T20:05:16.419Z,62.20
2018-07-01T20:06:17.494Z,61.28
2018-07-01T20:07:17.433Z,62.51
2018-07-01T20:08:16.466Z,63.25
2018-07-01T20:10:32.912Z,64.78
2018-07-01T20:11:32.761Z,65.70
2018-07-01T20:12:32.649Z,66.86
2018-07-01T20:13:32.195Z,66.86
2018-07-01T20:14:34.910Z,65.63
2018-07-01T20:15:33.130Z,65.50
2018-07-01T20:16:33.130Z,65.22
2018-07-01T20:17:32.002Z,65.91
2018-07-01T20:18:32.050Z,64.30
2018-07-01T20:19:32.134Z,63.48
2018-07-01T20:20:46.926Z,63.69
2018-07-01T20:21:32.841Z,65.43
2018-07-01T20:22:32.913Z,66.25
2018-07-01T20:23:33.150Z,67.71
2018-07-01T20:24:48.292Z,65.22
2018-07-01T20:25:43.948Z,67.10
2018-07-01T20:26:38.039Z,68.22
2018-07-01T20:27:42.918Z,67.10
2018-07-01T20:28:31.886Z,67.50
2018-07-01T20:29:32.036Z,66.38
2018-07-01T20:30:31.822Z,68.01
2018-07-01T20:31:31.815Z,67.71
2018-07-01T20:32:31.753Z,67.23
2018-07-01T20:33:31.864Z,67.02
2018-07-01T20:34:31.932Z,67.23
2018-07-01T20:35:31.822Z,67.64
2018-07-01T20:36:31.822Z,69.38
2018-07-01T20:37:31.821Z,68.55
2018-07-01T20:38:31.881Z,68.38
2018-07-01T20:41:36.532Z,69.51
2018-07-01T20:42:36.385Z,69.41
2018-07-01T20:43:36.352Z,69.82
2018-07-01T20:44:36.249Z,69.54
2018-07-01T20:45:36.320Z,68.28
2018-07-01T20:46:36.233Z,69.34
2018-07-01T20:47:36.278Z,69.75
2018-07-01T20:48:36.214Z,70.26
2018-07-01T20:49:36.195Z,69.65
2018-07-01T20:50:36.146Z,68.52
2018-07-01T20:51:36.176Z,68.24
2018-07-01T20:52:36.204Z,69.27
2018-07-01T20:53:36.152Z,69.57
2018-07-01T20:55:49.475Z,70.91
2018-07-01T20:56:49.514Z,71.01
2018-07-01T20:57:49.378Z,70.32
2018-07-01T20:58:49.446Z,69.40
2018-07-01T20:59:49.351Z,71.04
2018-07-01T21:00:49.458Z,71.04
2018-07-01T21:01:49.381Z,70.73
2018-07-01T21:02:49.279Z,71.25
2018-07-01T21:03:49.338Z,70.67
2018-07-01T21:04:49.264Z,71.28
2018-07-01T21:05:49.467Z,70.15
2018-07-01T21:06:49.376Z,72.82
2018-07-01T21:07:49.235Z,72.00
2018-07-01T21:08:49.254Z,71.59
2018-07-01T21:11:57.701Z,70.87
2018-07-01T21:12:57.721Z,71.42
2018-07-01T21:13:57.444Z,70.80
2018-07-01T21:14:57.701Z,71.62
2018-07-01T21:15:57.457Z,73.13
2018-07-01T21:16:57.530Z,73.27
2018-07-01T21:17:57.542Z,72.96
2018-07-01T21:18:57.464Z,74.15
2018-07-01T21:19:57.442Z,72.14
2018-07-01T21:20:57.349Z,72.96
2018-07-01T21:21:57.379Z,73.16
2018-07-01T21:22:57.342Z,73.47
2018-07-01T21:23:57.452Z,72.55
2018-07-01T21:26:19.349Z,72.75
2018-07-01T21:27:19.739Z,74.29
2018-07-01T21:28:19.230Z,74.40
2018-07-01T21:29:19.172Z,73.27
2018-07-01T21:30:19.097Z,72.68
2018-07-01T21:31:19.104Z,72.68
2018-07-01T21:32:19.083Z,72.06
2018-07-01T21:33:19.016Z,73.91
2018-07-01T21:34:19.032Z,74.12
2018-07-01T21:35:19.019Z,72.99
2018-07-01T21:36:19.342Z,73.95
2018-07-01T21:37:19.186Z,74.05
2018-07-01T21:38:19.010Z,73.10
2018-07-01T21:39:18.934Z,72.20
2018-07-01T21:41:29.971Z,72.10
2018-07-01T21:42:29.818Z,72.24
2018-07-01T21:43:29.708Z,72.65
2018-07-01T21:44:29.800Z,72.44
2018-07-01T21:45:29.798Z,72.55
2018-07-01T21:46:29.700Z,74.26
2018-07-01T21:47:29.721Z,74.91
2018-07-01T21:48:29.927Z,74.50
2018-07-01T21:49:29.847Z,73.78
2018-07-01T21:50:29.754Z,73.36
2018-07-01T21:51:29.913Z,73.88
2018-07-01T21:52:29.757Z,73.88
2018-07-01T21:53:29.620Z,72.75
2018-07-01T21:54:29.821Z,72.85
2018-07-01T21:56:55.734Z,74.43
2018-07-01T21:57:55.645Z,73.91
2018-07-01T21:58:55.764Z,74.22
2018-07-01T21:59:55.414Z,74.22
2018-07-01T22:00:55.304Z,74.84
2018-07-01T22:01:55.283Z,75.35
2018-07-01T22:02:55.305Z,76.18
2018-07-01T22:03:55.292Z,75.87
2018-07-01T22:04:55.233Z,74.63
2018-07-01T22:05:55.207Z,74.53
2018-07-01T22:06:55.318Z,73.81
2018-07-01T22:07:55.227Z,74.02
2018-07-01T22:08:55.294Z,75.04
2018-07-01T22:11:11.912Z,74.63
2018-07-01T22:12:11.749Z,74.74
2018-07-01T22:13:11.824Z,76.59
2018-07-01T22:14:11.723Z,76.07
2018-07-01T22:15:11.594Z,74.87
2018-07-01T22:16:11.607Z,74.84
2018-07-01T22:17:11.633Z,76.31
2018-07-01T22:18:11.604Z,74.77
2018-07-01T22:19:11.555Z,74.46
2018-07-01T22:20:11.608Z,74.98
2018-07-01T22:21:11.564Z,74.87
2018-07-01T22:22:11.555Z,75.29
2018-07-01T22:23:11.582Z,75.59
2018-07-01T22:24:11.473Z,74.46
2018-07-01T22:25:22.709Z,75.42
2018-07-01T22:26:11.559Z,74.29
2018-07-01T22:27:11.595Z,73.98
2018-07-01T22:28:30.193Z,76.66
2018-07-01T22:29:16.339Z,76.97
2018-07-01T22:30:15.334Z,76.76
2018-07-01T22:31:17.337Z,76.76
2018-07-01T22:32:15.962Z,76.86
2018-07-01T22:33:11.568Z,76.86
2018-07-01T22:34:12.508Z,76.14
2018-07-01T22:35:12.450Z,75.52
2018-07-01T22:36:13.296Z,76.18
2018-07-01T22:37:11.491Z,75.46
2018-07-01T22:38:12.234Z,76.39
2018-07-01T22:39:12.541Z,77.28
2018-07-01T22:41:24.517Z,75.56
2018-07-01T22:42:24.668Z,75.97
2018-07-01T22:43:24.031Z,76.07
2018-07-01T22:44:23.738Z,75.56
2018-07-01T22:45:23.749Z,76.07
2018-07-01T22:46:23.543Z,76.39
2018-07-01T22:47:23.517Z,75.67
2018-07-01T22:48:24.272Z,76.28
2018-07-01T22:49:23.489Z,76.90
2018-07-01T22:50:23.496Z,76.28
2018-07-01T22:51:27.853Z,74.53
2018-07-01T22:52:23.461Z,74.98
2018-07-01T22:53:23.545Z,76.42
2018-07-01T22:54:23.524Z,77.35